Time;durP1;ratioP1;P1;durP2;ratioP2;P2;SDS_P1;SDS_P2;PMS_P1;PMS_P2;Temp;Humidity;BMP_temperature;BMP_pressure;BME280_temperature;BME280_humidity;BME280_pressure;Samples;Min_cycle;Max_cycle;Signal;HPM_P1;HPM_P2
2023/07/23 00:00:21;;;;;;;10.90;9.60;;;17.00;99.90;;;;;;5093588;28;20526;-81
2023/07/23 00:02:46;;;;;;;9.47;8.30;;;16.90;99.90;;;;;;5093545;28;20425;-82
2023/07/23 00:05:12;;;;;;;8.93;7.90;;;16.90;99.90;;;;;;5093776;28;20174;-90
2023/07/23 00:07:37;;;;;;;8.77;7.87;;;16.90;99.90;;;;;;5093659;28;20638;-81
2023/07/23 00:10:03;;;;;;;9.47;8.03;;;16.80;99.90;;;;;;5093299;28;20262;-80
2023/07/23 00:12:29;;;;;;;10.47;7.30;;;16.80;99.90;;;;;;5093629;28;20638;-91
2023/07/23 00:14:54;;;;;;;9.70;8.70;;;16.80;99.90;;;;;;5093398;28;20170;-81
2023/07/23 00:17:20;;;;;;;10.07;8.63;;;16.80;99.90;;;;;;5092293;28;20420;-81
2023/07/23 00:19:45;;;;;;;11.17;9.10;;;16.70;99.90;;;;;;5092705;28;20165;-90
2023/07/23 00:22:11;;;;;;;10.83;8.07;;;16.80;99.90;;;;;;5093695;28;20568;-81
2023/07/23 00:24:37;;;;;;;8.63;6.77;;;16.80;99.90;;;;;;5093476;28;20266;-89
2023/07/23 00:27:03;;;;;;;8.10;7.27;;;16.80;99.90;;;;;;5094418;28;20169;-81
2023/07/23 00:29:28;;;;;;;8.90;8.00;;;16.80;99.90;;;;;;5094169;28;20412;-81
2023/07/23 00:31:54;;;;;;;10.07;7.40;;;16.90;99.90;;;;;;5093969;28;20935;-90
2023/07/23 00:34:38;;;;;;;11.63;9.00;;;16.80;99.90;;;;;;5093959;28;20168;-80
2023/07/23 00:37:04;;;;;;;10.93;7.90;;;16.80;99.90;;;;;;5093247;28;20412;-80
2023/07/23 00:39:29;;;;;;;9.23;7.80;;;16.90;99.90;;;;;;5092989;28;20918;-80
2023/07/23 00:41:55;;;;;;;9.10;8.20;;;16.70;99.90;;;;;;5092787;28;20247;-81
2023/07/23 00:44:20;;;;;;;10.90;8.20;;;16.70;99.90;;;;;;5093081;28;20178;-80
2023/07/23 00:46:46;;;;;;;9.70;8.80;;;16.70;99.90;;;;;;5092984;28;20172;-80
2023/07/23 00:49:12;;;;;;;9.97;8.20;;;16.70;99.90;;;;;;5093129;28;20170;-81
2023/07/23 00:51:39;;;;;;;10.07;8.50;;;16.60;99.90;;;;;;5093057;28;20179;-80
2023/07/23 00:54:04;;;;;;;11.13;8.03;;;16.60;99.90;;;;;;5092693;28;20177;-80
2023/07/23 00:56:30;;;;;;;9.93;8.60;;;16.50;99.90;;;;;;5093159;28;20974;-88
2023/07/23 00:58:56;;;;;;;9.93;8.90;;;16.50;99.90;;;;;;5093194;28;20170;-80
2023/07/23 01:01:22;;;;;;;12.97;9.93;;;16.40;99.90;;;;;;5093081;28;20523;-81
2023/07/23 01:03:49;;;;;;;11.73;10.53;;;16.50;99.90;;;;;;5093138;28;20412;-78
2023/07/23 01:06:17;;;;;;;13.37;10.63;;;16.30;99.90;;;;;;5095049;28;20177;-80
2023/07/23 01:08:44;;;;;;;11.23;10.13;;;16.30;99.90;;;;;;5096821;28;20416;-81
2023/07/23 01:11:10;;;;;;;13.63;10.07;;;16.20;99.90;;;;;;5095952;28;20421;-91
2023/07/23 01:13:38;;;;;;;11.10;9.30;;;16.20;99.90;;;;;;5096986;28;20816;-87
2023/07/23 01:16:07;;;;;;;12.20;10.90;;;16.20;99.90;;;;;;5096725;28;20410;-82
2023/07/23 01:18:36;;;;;;;13.60;11.97;;;16.30;99.90;;;;;;5096760;28;20455;-86
2023/07/23 01:21:02;;;;;;;13.37;10.33;;;16.30;99.90;;;;;;5096680;28;20828;-90
2023/07/23 01:23:27;;;;;;;14.07;12.67;;;16.30;99.90;;;;;;5096673;28;20414;-79
2023/07/23 01:25:53;;;;;;;14.27;11.57;;;16.30;99.90;;;;;;5096261;28;20167;-80
2023/07/23 01:28:18;;;;;;;14.40;11.63;;;16.30;99.90;;;;;;5096715;28;20299;-90
2023/07/23 01:30:44;;;;;;;13.73;12.27;;;16.30;99.90;;;;;;5095372;28;20628;-89
2023/07/23 01:33:10;;;;;;;13.23;11.47;;;16.30;99.90;;;;;;5095262;28;20206;-80
2023/07/23 01:35:36;;;;;;;17.43;11.73;;;16.20;99.90;;;;;;5096422;28;20164;-79
2023/07/23 01:38:03;;;;;;;15.60;11.37;;;16.30;99.90;;;;;;5096382;28;20408;-90
2023/07/23 01:40:29;;;;;;;14.03;10.37;;;16.30;99.90;;;;;;5095885;28;20212;-89
2023/07/23 01:42:55;;;;;;;13.67;12.30;;;16.30;99.90;;;;;;5096285;28;20453;-90
2023/07/23 01:45:20;;;;;;;15.30;12.70;;;16.40;99.90;;;;;;5095001;28;20223;-80
2023/07/23 01:47:45;;;;;;;14.37;12.87;;;16.30;99.90;;;;;;5096297;28;20166;-91
2023/07/23 01:50:11;;;;;;;14.73;12.50;;;16.30;99.90;;;;;;5096373;28;20808;-80
2023/07/23 01:52:36;;;;;;;14.33;12.07;;;16.40;99.90;;;;;;5096262;28;20174;-89
2023/07/23 01:55:02;;;;;;;14.07;12.60;;;16.30;99.90;;;;;;5095879;28;20638;-82
2023/07/23 01:57:27;;;;;;;13.73;12.10;;;16.30;99.90;;;;;;5095923;28;20201;-80
2023/07/23 01:59:53;;;;;;;16.13;12.27;;;16.30;99.90;;;;;;5095854;28;20191;-80
2023/07/23 02:02:18;;;;;;;14.50;12.60;;;16.40;99.90;;;;;;5095764;28;20208;-80
2023/07/23 02:04:44;;;;;;;14.53;12.90;;;16.40;99.90;;;;;;5095864;28;20546;-80
2023/07/23 02:07:11;;;;;;;15.97;13.30;;;16.40;99.90;;;;;;5095772;28;20176;-88
2023/07/23 02:09:37;;;;;;;14.10;12.40;;;16.40;99.90;;;;;;5095782;28;20759;-81
2023/07/23 02:12:02;;;;;;;14.17;12.30;;;16.40;99.90;;;;;;5095715;28;20472;-81
2023/07/23 02:14:29;;;;;;;18.17;12.57;;;16.40;99.90;;;;;;5095749;28;20190;-81
2023/07/23 02:16:54;;;;;;;17.40;12.23;;;16.40;99.90;;;;;;5094953;28;20596;-89
2023/07/23 02:19:20;;;;;;;13.70;12.13;;;16.40;99.90;;;;;;5095351;28;20501;-79
2023/07/23 02:21:46;;;;;;;14.30;12.80;;;16.40;99.90;;;;;;5094214;28;20216;-80
2023/07/23 02:24:11;;;;;;;14.70;13.10;;;16.40;99.90;;;;;;5095157;28;20211;-88
2023/07/23 02:26:37;;;;;;;16.07;11.50;;;16.40;99.90;;;;;;5095517;28;20170;-89
2023/07/23 02:29:02;;;;;;;14.27;11.60;;;16.60;99.90;;;;;;5095359;28;20171;-79
2023/07/23 02:31:28;;;;;;;14.97;11.27;;;16.50;99.90;;;;;;5094161;28;20176;-79
2023/07/23 02:33:53;;;;;;;13.50;12.13;;;16.50;99.90;;;;;;5095260;28;20168;-88
2023/07/23 02:36:19;;;;;;;14.20;11.87;;;16.50;99.90;;;;;;5094089;28;20612;-80
2023/07/23 02:38:44;;;;;;;16.33;11.47;;;16.50;99.90;;;;;;5094741;28;20168;-88
2023/07/23 02:41:10;;;;;;;13.30;10.10;;;16.40;99.90;;;;;;5094975;28;20262;-80
2023/07/23 02:43:35;;;;;;;12.33;10.43;;;16.40;99.90;;;;;;5094990;28;20258;-80
2023/07/23 02:46:00;;;;;;;12.97;11.00;;;16.50;99.90;;;;;;5095006;28;20169;-83
2023/07/23 02:48:26;;;;;;;14.40;10.97;;;16.40;99.90;;;;;;5094994;28;20167;-80
2023/07/23 02:50:52;;;;;;;13.97;12.47;;;16.40;99.90;;;;;;5094963;28;20201;-80
2023/07/23 02:53:18;;;;;;;13.03;11.73;;;16.40;99.90;;;;;;5093604;28;20656;-89
2023/07/23 02:55:44;;;;;;;14.43;10.83;;;16.40;99.90;;;;;;5094510;28;20768;-81
2023/07/23 02:58:10;;;;;;;13.03;11.27;;;16.30;99.90;;;;;;5094915;28;20729;-79
2023/07/23 03:00:39;;;;;;;15.03;12.00;;;16.30;99.90;;;;;;5094624;28;20526;-80
2023/07/23 03:03:06;;;;;;;13.73;11.73;;;16.30;99.90;;;;;;5093450;28;20183;-81
2023/07/23 03:05:33;;;;;;;12.57;11.07;;;16.30;99.90;;;;;;5094667;28;20422;-81
2023/07/23 03:07:58;;;;;;;14.70;10.63;;;16.30;99.90;;;;;;5094848;28;20546;-89
2023/07/23 03:10:24;;;;;;;19.53;12.53;;;16.20;99.90;;;;;;5094117;28;20524;-80
2023/07/23 03:12:49;;;;;;;15.77;11.10;;;16.20;99.90;;;;;;5094487;28;20180;-80
2023/07/23 03:15:14;;;;;;;15.47;11.30;;;16.30;99.90;;;;;;5094490;28;20170;-80
2023/07/23 03:17:40;;;;;;;14.07;11.20;;;16.30;99.90;;;;;;5094277;28;20181;-79
2023/07/23 03:20:07;;;;;;;14.00;12.60;;;16.20;99.90;;;;;;5094240;28;20680;-89
2023/07/23 03:22:32;;;;;;;13.87;12.47;;;16.20;99.90;;;;;;5094307;28;20205;-80
2023/07/23 03:24:58;;;;;;;13.10;11.40;;;16.30;99.90;;;;;;5092775;28;20431;-80
2023/07/23 03:27:24;;;;;;;15.20;12.30;;;16.30;99.90;;;;;;5094198;28;20513;-87
2023/07/23 03:29:49;;;;;;;13.30;11.93;;;16.30;99.90;;;;;;5094177;28;20182;-88
2023/07/23 03:32:15;;;;;;;13.50;12.10;;;16.30;99.90;;;;;;5094040;28;20177;-81
2023/07/23 03:34:40;;;;;;;13.03;11.00;;;16.30;99.90;;;;;;5094074;28;20539;-81
2023/07/23 03:37:06;;;;;;;12.80;9.80;;;16.30;99.90;;;;;;5094119;28;20202;-87
2023/07/23 03:39:31;;;;;;;13.23;11.87;;;16.30;99.90;;;;;;5093683;28;20181;-79
2023/07/23 03:41:57;;;;;;;16.07;12.57;;;16.30;99.90;;;;;;5093805;28;20208;-89
2023/07/23 03:44:22;;;;;;;16.83;12.53;;;16.20;99.90;;;;;;5093998;28;20179;-80
2023/07/23 03:47:15;;;;;;;12.70;11.40;;;16.20;99.90;;;;;;5093867;28;20629;-80
2023/07/23 03:49:41;;;;;;;15.10;11.80;;;16.30;99.90;;;;;;5093991;28;20262;-79
2023/07/23 03:52:08;;;;;;;13.57;12.27;;;16.20;99.90;;;;;;5093791;28;20931;-88
2023/07/23 03:54:34;;;;;;;14.83;11.27;;;16.20;99.90;;;;;;5093321;28;20468;-84
2023/07/23 03:57:00;;;;;;;13.87;12.23;;;16.20;99.90;;;;;;5093769;28;20418;-88
2023/07/23 03:59:30;;;;;;;11.30;10.20;;;16.30;99.90;;;;;;5093691;28;20414;-81
2023/07/23 04:01:56;;;;;;;11.00;9.90;;;16.30;99.90;;;;;;5093543;28;20546;-80
2023/07/23 04:04:21;;;;;;;12.47;11.17;;;16.20;99.90;;;;;;5093764;28;20525;-79
2023/07/23 04:06:47;;;;;;;14.10;11.63;;;16.30;99.90;;;;;;5093603;28;20166;-80
2023/07/23 04:09:13;;;;;;;12.87;11.40;;;16.30;99.90;;;;;;5093403;28;20207;-80
2023/07/23 04:11:39;;;;;;;12.53;11.03;;;16.30;99.90;;;;;;5093571;28;20697;-79
2023/07/23 04:14:04;;;;;;;13.97;11.90;;;16.20;99.90;;;;;;5093451;28;20415;-80
2023/07/23 04:16:30;;;;;;;11.67;10.43;;;16.20;99.90;;;;;;5093300;28;20272;-81
2023/07/23 04:18:55;;;;;;;13.57;11.50;;;16.30;99.90;;;;;;5093369;28;20212;-80
2023/07/23 04:21:22;;;;;;;13.00;10.97;;;16.40;99.90;;;;;;5093306;28;20220;-82
2023/07/23 04:23:48;;;;;;;11.73;10.47;;;16.40;99.90;;;;;;5092834;28;20570;-83
2023/07/23 04:26:18;;;;;;;13.17;10.77;;;16.50;99.90;;;;;;5093277;28;20434;-84
2023/07/23 04:28:45;;;;;;;12.53;10.30;;;16.50;99.90;;;;;;5093334;28;20411;-82
2023/07/23 04:31:11;;;;;;;12.83;10.10;;;16.50;99.90;;;;;;5093215;28;20415;-80
2023/07/23 04:33:36;;;;;;;9.70;8.47;;;16.60;99.90;;;;;;5093156;28;20568;-81
2023/07/23 04:36:07;;;;;;;10.67;9.47;;;16.60;99.90;;;;;;5093252;28;20407;-84
2023/07/23 04:38:33;;;;;;;11.43;9.60;;;16.60;99.90;;;;;;5092959;28;20183;-84
2023/07/23 04:40:59;;;;;;;12.53;9.07;;;16.60;99.90;;;;;;5094505;28;20807;-82
2023/07/23 04:43:24;;;;;;;11.50;8.50;;;16.60;99.90;;;;;;5097025;28;20459;-82
2023/07/23 04:45:50;;;;;;;12.23;8.83;;;16.50;99.90;;;;;;5097221;28;20216;-84
2023/07/23 04:48:16;;;;;;;12.43;10.10;;;16.50;99.90;;;;;;5096338;28;20742;-80
2023/07/23 04:50:42;;;;;;;11.63;8.90;;;16.60;99.90;;;;;;5097228;28;20226;-83
2023/07/23 04:53:08;;;;;;;11.47;8.60;;;16.60;99.90;;;;;;5096769;28;20461;-84
2023/07/23 04:55:34;;;;;;;11.77;9.73;;;16.70;99.90;;;;;;5097175;28;20419;-84
2023/07/23 04:57:59;;;;;;;10.63;8.30;;;16.70;99.90;;;;;;5097105;28;20212;-82
2023/07/23 05:00:26;;;;;;;11.10;9.20;;;16.70;99.90;;;;;;5096861;28;20200;-81
2023/07/23 05:02:51;;;;;;;10.93;8.20;;;16.60;99.90;;;;;;5096889;28;20193;-81
2023/07/23 05:05:17;;;;;;;9.80;6.70;;;16.60;99.90;;;;;;5096871;28;20440;-80
2023/07/23 05:07:42;;;;;;;9.23;7.40;;;16.60;99.90;;;;;;5096733;28;20404;-80
2023/07/23 05:10:08;;;;;;;12.50;10.30;;;16.60;99.90;;;;;;5096444;28;20442;-80
2023/07/23 05:12:34;;;;;;;8.03;5.47;;;16.60;99.90;;;;;;5095478;28;20182;-78
2023/07/23 05:15:11;;;;;;;9.87;8.03;;;16.60;99.90;;;;;;5095372;28;20939;-80
2023/07/23 05:17:36;;;;;;;1999.90;999.90;;;16.50;99.90;;;;;;5096536;28;20174;-78
2023/07/23 05:20:05;;;;;;;10.63;7.47;;;16.50;99.90;;;;;;5096556;28;20498;-79
2023/07/23 05:22:31;;;;;;;11.63;7.60;;;16.50;99.90;;;;;;5096530;28;20174;-79
2023/07/23 05:24:56;;;;;;;8.63;7.23;;;16.50;99.90;;;;;;5094814;28;20418;-80
2023/07/23 05:27:22;;;;;;;7.47;6.53;;;16.50;99.90;;;;;;5096366;28;20176;-78
2023/07/23 05:29:47;;;;;;;8.53;6.70;;;16.60;99.90;;;;;;5096348;28;20179;-80
2023/07/23 05:32:13;;;;;;;9.77;6.80;;;16.50;99.90;;;;;;5096460;28;20205;-78
2023/07/23 05:34:38;;;;;;;7.07;5.13;;;16.50;99.90;;;;;;5096308;28;20649;-79
2023/07/23 05:37:04;;;;;;;8.60;6.63;;;16.50;99.90;;;;;;5096236;28;20178;-79
2023/07/23 05:39:29;;;;;;;10.00;6.00;;;16.50;99.90;;;;;;5095867;28;20709;-78
2023/07/23 05:41:55;;;;;;;5.80;5.20;;;16.50;99.90;;;;;;5095832;28;20215;-78
2023/07/23 05:44:20;;;;;;;8.87;5.60;;;16.50;99.90;;;;;;5096122;28;20178;-80
2023/07/23 05:46:46;;;;;;;9.53;6.67;;;16.50;99.90;;;;;;5096107;28;20177;-79
2023/07/23 05:49:11;;;;;;;8.10;6.40;;;16.40;99.90;;;;;;5096332;28;20180;-78
2023/07/23 05:51:37;;;;;;;8.17;6.00;;;16.40;99.90;;;;;;5095400;28;20261;-78
2023/07/23 05:54:02;;;;;;;6.43;4.63;;;16.50;99.90;;;;;;5094809;28;20165;-78
2023/07/23 05:56:29;;;;;;;7.70;5.90;;;16.50;99.90;;;;;;5095808;28;20177;-79
2023/07/23 05:58:55;;;;;;;9.97;6.07;;;16.60;99.90;;;;;;5095805;28;20169;-79
2023/07/23 06:01:20;;;;;;;10.10;6.37;;;16.50;99.90;;;;;;5095692;28;20563;-79
2023/07/23 06:03:46;;;;;;;8.60;4.83;;;16.50;99.90;;;;;;5095714;28;20665;-78
2023/07/23 06:06:11;;;;;;;7.47;5.90;;;16.60;99.90;;;;;;5094429;28;20180;-79
2023/07/23 06:08:36;;;;;;;7.50;5.43;;;16.60;99.90;;;;;;5095344;28;20176;-80
2023/07/23 06:11:02;;;;;;;5.77;5.07;;;16.60;99.90;;;;;;5095598;28;20170;-80
2023/07/23 06:13:27;;;;;;;8.73;5.70;;;16.60;99.90;;;;;;5095482;28;20209;-79
2023/07/23 06:15:53;;;;;;;9.30;5.37;;;16.70;99.90;;;;;;5095467;28;20225;-80
2023/07/23 06:18:18;;;;;;;6.27;5.03;;;16.80;99.90;;;;;;5095438;28;20177;-79
2023/07/23 06:20:44;;;;;;;6.73;5.23;;;16.80;99.90;;;;;;5095308;28;20289;-79
2023/07/23 06:23:09;;;;;;;8.03;5.57;;;16.90;99.90;;;;;;5095017;28;20857;-79
2023/07/23 06:25:35;;;;;;;8.97;5.50;;;16.90;99.90;;;;;;5094069;28;20166;-80
2023/07/23 06:28:00;;;;;;;10.10;6.40;;;17.00;99.90;;;;;;5095315;28;20166;-79
2023/07/23 06:30:26;;;;;;;12.10;6.00;;;17.00;99.90;;;;;;5095149;28;20499;-78
2023/07/23 06:32:51;;;;;;;9.10;5.10;;;17.00;99.90;;;;;;5095247;28;20178;-80
2023/07/23 06:35:16;;;;;;;8.10;6.27;;;17.00;99.90;;;;;;5095451;28;20530;-91
2023/07/23 06:37:42;;;;;;;9.27;5.80;;;17.00;99.90;;;;;;5095146;28;20212;-80
2023/07/23 06:40:08;;;;;;;7.20;5.87;;;17.10;99.90;;;;;;5094677;28;20240;-79
2023/07/23 06:42:33;;;;;;;9.40;6.13;;;17.10;99.90;;;;;;5094882;28;20218;-80
2023/07/23 06:44:59;;;;;;;11.93;6.40;;;17.10;99.90;;;;;;5094922;28;20411;-80
2023/07/23 06:47:24;;;;;;;8.57;6.87;;;17.10;99.90;;;;;;5094894;28;20641;-80
2023/07/23 06:49:50;;;;;;;6.13;5.40;;;17.10;99.90;;;;;;5094857;28;20173;-79
2023/07/23 06:52:15;;;;;;;10.50;6.87;;;17.20;99.90;;;;;;5094728;28;20166;-79
2023/07/23 06:54:42;;;;;;;9.53;6.10;;;17.20;99.90;;;;;;5094448;28;20206;-80
2023/07/23 06:57:08;;;;;;;9.80;6.73;;;17.20;99.90;;;;;;5094721;28;20166;-79
2023/07/23 06:59:34;;;;;;;8.50;6.97;;;17.10;99.90;;;;;;5094649;28;20428;-80
2023/07/23 07:01:59;;;;;;;10.00;7.00;;;17.10;99.90;;;;;;5094650;28;20475;-80
2023/07/23 07:04:25;;;;;;;8.70;6.57;;;17.20;99.90;;;;;;5094525;28;20175;-89
2023/07/23 07:06:50;;;;;;;11.40;6.97;;;17.20;99.90;;;;;;5094890;28;20173;-80
2023/07/23 07:09:16;;;;;;;8.93;7.30;;;17.10;99.90;;;;;;5094504;28;20171;-89
2023/07/23 07:11:42;;;;;;;10.47;8.47;;;17.10;99.90;;;;;;5094849;28;20247;-87
2023/07/23 07:14:07;;;;;;;8.93;6.60;;;17.10;99.90;;;;;;5094849;28;20166;-80
2023/07/23 07:16:33;;;;;;;9.73;7.40;;;17.10;99.90;;;;;;5093286;28;20427;-78
2023/07/23 07:18:58;;;;;;;9.47;6.50;;;17.20;99.90;;;;;;5094432;28;20169;-82
2023/07/23 07:21:24;;;;;;;9.37;6.30;;;17.10;99.90;;;;;;5094607;28;20552;-90
2023/07/23 07:23:49;;;;;;;8.67;7.00;;;17.20;99.90;;;;;;5093053;28;20229;-91
2023/07/23 07:26:15;;;;;;;11.00;7.13;;;17.30;99.90;;;;;;5094490;28;20174;-88
2023/07/23 07:28:40;;;;;;;8.00;7.20;;;17.30;99.90;;;;;;5093300;28;20167;-89
2023/07/23 07:31:06;;;;;;;8.73;6.17;;;17.30;99.90;;;;;;5094381;28;20229;-91
2023/07/23 07:33:31;;;;;;;7.20;5.93;;;17.50;99.90;;;;;;5094471;28;20178;-79
2023/07/23 07:35:58;;;;;;;7.70;6.50;;;17.40;99.90;;;;;;5094246;28;20190;-80
2023/07/23 07:38:25;;;;;;;7.70;6.63;;;17.40;99.90;;;;;;5094091;28;20572;-80
2023/07/23 07:40:51;;;;;;;8.17;6.67;;;17.50;99.90;;;;;;5094048;28;20845;-85
2023/07/23 07:43:17;;;;;;;10.60;8.20;;;17.50;99.90;;;;;;5094011;28;20479;-91
2023/07/23 07:45:50;;;;;;;9.63;7.50;;;17.50;99.90;;;;;;5092989;28;20415;-90
2023/07/23 07:48:16;;;;;;;9.80;7.90;;;17.70;99.90;;;;;;5093926;28;20406;-88
2023/07/23 07:50:41;;;;;;;11.63;7.80;;;17.70;99.90;;;;;;5094043;28;20408;-90
2023/07/23 07:53:07;;;;;;;10.90;7.33;;;17.70;99.90;;;;;;5093724;28;20430;-84
2023/07/23 07:55:42;;;;;;;7.03;5.87;;;17.80;99.90;;;;;;5094050;28;20622;-85
2023/07/23 07:58:12;;;;;;;8.53;6.80;;;17.90;99.90;;;;;;5093944;28;20170;-90
2023/07/23 08:00:38;;;;;;;10.47;6.67;;;17.90;99.90;;;;;;5093957;28;20495;-92
2023/07/23 08:03:04;;;;;;;7.50;6.67;;;18.10;99.90;;;;;;5094008;28;20419;-91
2023/07/23 08:05:30;;;;;;;7.00;5.40;;;18.20;99.90;;;;;;5093785;28;20768;-92
2023/07/23 08:07:56;;;;;;;9.07;6.33;;;18.30;99.90;;;;;;5093388;28;20639;-89
2023/07/23 08:10:21;;;;;;;10.73;8.00;;;18.30;99.90;;;;;;5092621;28;20173;-82
2023/07/23 08:12:47;;;;;;;8.80;5.93;;;18.30;99.90;;;;;;5093733;28;20803;-92
2023/07/23 08:15:13;;;;;;;9.97;7.43;;;18.30;99.90;;;;;;5093002;28;20176;-81
2023/07/23 08:17:39;;;;;;;8.40;6.27;;;18.40;99.90;;;;;;5092447;28;20418;-82
2023/07/23 08:20:05;;;;;;;7.07;6.37;;;18.40;99.90;;;;;;5093712;28;20563;-79
2023/07/23 08:22:31;;;;;;;8.50;6.17;;;18.50;99.90;;;;;;5092086;28;20219;-88
2023/07/23 08:24:56;;;;;;;5.70;5.20;;;18.60;99.90;;;;;;5093387;28;20919;-81
2023/07/23 08:27:23;;;;;;;8.20;5.97;;;18.60;99.90;;;;;;5093561;28;20177;-89
2023/07/23 08:29:48;;;;;;;9.00;6.83;;;18.60;99.90;;;;;;5093527;28;20564;-80
2023/07/23 08:32:16;;;;;;;9.80;6.10;;;18.60;99.90;;;;;;5093477;28;20478;-83
2023/07/23 08:34:43;;;;;;;8.77;6.70;;;18.80;99.90;;;;;;5093502;28;20178;-80
2023/07/23 08:37:10;;;;;;;10.70;7.73;;;18.70;99.90;;;;;;5092154;28;20435;-80
2023/07/23 08:39:35;;;;;;;7.83;6.20;;;18.80;99.90;;;;;;5093147;28;20432;-80
2023/07/23 08:42:23;;;;;;;6.83;5.80;;;18.90;99.90;;;;;;5092927;28;20508;-79
2023/07/23 08:45:16;;;;;;;7.53;6.27;;;19.00;99.90;;;;;;5093154;28;20238;-92
2023/07/23 08:47:46;;;;;;;8.90;6.57;;;19.10;99.90;;;;;;5091825;28;20429;-79
2023/07/23 08:50:13;;;;;;;10.10;6.50;;;19.20;99.90;;;;;;5093131;28;20419;-80
2023/07/23 08:52:41;;;;;;;6.97;6.10;;;19.10;99.90;;;;;;5092367;28;20415;-80
2023/07/23 08:55:07;;;;;;;14.50;6.83;;;19.10;99.90;;;;;;5092893;28;20821;-80
2023/07/23 08:57:33;;;;;;;8.07;6.80;;;19.20;99.90;;;;;;5093105;28;20461;-80
2023/07/23 09:00:00;;;;;;;10.10;7.37;;;19.10;99.90;;;;;;5092742;28;20810;-92
2023/07/23 09:02:27;;;;;;;8.00;6.87;;;19.20;99.90;;;;;;5091355;28;20258;-78
2023/07/23 09:04:53;;;;;;;8.47;7.17;;;19.20;99.90;;;;;;5092771;28;20414;-80
2023/07/23 09:07:19;;;;;;;6.30;5.70;;;19.20;99.90;;;;;;5092815;28;20417;-79
2023/07/23 09:09:48;;;;;;;10.13;7.90;;;19.20;99.90;;;;;;5092533;28;20170;-79
2023/07/23 09:12:14;;;;;;;8.57;6.50;;;19.10;99.90;;;;;;5092710;28;20415;-79
2023/07/23 09:14:44;;;;;;;8.23;6.90;;;19.00;99.90;;;;;;5092709;28;20430;-80
2023/07/23 09:17:19;;;;;;;9.63;6.37;;;19.00;99.90;;;;;;5092700;28;20184;-80
2023/07/23 09:19:45;;;;;;;7.83;6.37;;;19.10;99.90;;;;;;5092690;28;20418;-80
2023/07/23 09:22:10;;;;;;;7.47;6.23;;;19.10;99.90;;;;;;5092516;28;20463;-78
2023/07/23 09:24:36;;;;;;;7.90;6.93;;;19.10;99.90;;;;;;5092246;28;20176;-79
2023/07/23 09:27:02;;;;;;;8.03;6.30;;;19.10;99.90;;;;;;5094112;28;20199;-79
2023/07/23 09:29:38;;;;;;;7.80;7.00;;;19.10;99.90;;;;;;5096398;28;20177;-79
2023/07/23 09:32:14;;;;;;;8.77;6.90;;;19.10;99.90;;;;;;5096432;28;20429;-83
2023/07/23 09:34:45;;;;;;;8.20;6.20;;;19.10;99.90;;;;;;5096694;28;20413;-81
2023/07/23 09:37:11;;;;;;;10.40;8.40;;;19.10;99.90;;;;;;5096393;28;20826;-80
2023/07/23 09:39:37;;;;;;;10.73;6.50;;;19.10;99.90;;;;;;5094630;28;20424;-78
2023/07/23 09:42:04;;;;;;;7.30;6.47;;;19.20;99.90;;;;;;5095902;28;20232;-79
2023/07/23 09:44:29;;;;;;;8.60;6.80;;;19.10;99.90;;;;;;5096264;28;20416;-78
2023/07/23 09:46:58;;;;;;;8.47;7.30;;;19.10;99.90;;;;;;5096113;28;20423;-81
2023/07/23 09:49:28;;;;;;;8.70;7.10;;;19.20;99.90;;;;;;5096102;28;20209;-78
2023/07/23 09:51:54;;;;;;;9.90;8.93;;;19.20;99.90;;;;;;5096049;28;20758;-81
2023/07/23 09:54:21;;;;;;;7.90;6.70;;;19.30;99.90;;;;;;5094363;28;20428;-78
2023/07/23 09:56:47;;;;;;;9.40;7.10;;;19.30;99.90;;;;;;5095922;28;20624;-80
2023/07/23 09:59:14;;;;;;;7.00;6.30;;;19.30;99.90;;;;;;5095941;28;20417;-79
2023/07/23 10:01:40;;;;;;;10.73;7.80;;;19.30;99.90;;;;;;5096065;28;20467;-86
2023/07/23 10:04:07;;;;;;;7.73;6.90;;;19.30;99.90;;;;;;5096907;28;20553;-90
2023/07/23 10:06:32;;;;;;;7.60;6.80;;;19.50;99.90;;;;;;5096620;28;20417;-79
2023/07/23 10:09:02;;;;;;;8.00;6.00;;;19.50;99.90;;;;;;5096283;28;20412;-93
2023/07/23 10:11:27;;;;;;;1999.90;999.90;;;19.50;99.90;;;;;;5097170;28;20171;-90
2023/07/23 10:13:53;;;;;;;696.00;336.80;;;19.60;99.90;;;;;;5096993;28;20421;-89
2023/07/23 10:16:26;;;;;;;44.57;7.90;;;19.60;99.90;;;;;;5095938;28;20197;-89
2023/07/23 10:18:53;;;;;;;51.07;21.87;;;19.60;99.90;;;;;;5095969;28;20164;-81
2023/07/23 10:21:19;;;;;;;1999.90;999.90;;;19.80;99.90;;;;;;5095704;28;20466;-79
2023/07/23 10:23:58;;;;;;;50.97;19.07;;;19.90;99.90;;;;;;5094142;28;20428;-79
2023/07/23 10:26:29;;;;;;;0.30;0.20;;;20.00;99.90;;;;;;5096022;28;20182;-88
2023/07/23 10:29:07;;;;;;;0.30;0.20;;;20.10;99.90;;;;;;5095580;28;20934;-79
2023/07/23 10:31:33;;;;;;;1.87;0.20;;;20.20;99.90;;;;;;5095808;28;20449;-89
2023/07/23 10:33:59;;;;;;;2.53;0.20;;;20.40;99.90;;;;;;5095527;28;20410;-80
2023/07/23 10:36:25;;;;;;;39.83;11.10;;;20.40;99.90;;;;;;5095523;28;20421;-91
2023/07/23 10:39:17;;;;;;;1999.90;999.90;;;20.60;99.90;;;;;;5094640;28;20751;-85
2023/07/23 10:41:53;;;;;;;1999.90;999.90;;;20.60;99.90;;;;;;5095237;28;20472;-80
2023/07/23 10:44:31;;;;;;;4.80;0.20;;;20.70;99.90;;;;;;5095360;28;20420;-90
2023/07/23 10:46:58;;;;;;;37.13;5.43;;;20.70;99.90;;;;;;5095463;28;20418;-89
2023/07/23 10:49:28;;;;;;;1999.90;999.90;;;20.70;99.90;;;;;;5095305;28;20770;-90
2023/07/23 10:51:53;;;;;;;1999.90;999.90;;;20.60;99.90;;;;;;5095265;28;20410;-90
2023/07/23 10:54:20;;;;;;;1999.90;999.90;;;20.70;99.90;;;;;;5094687;28;20413;-90
2023/07/23 10:56:49;;;;;;;0.87;0.20;;;21.00;99.90;;;;;;5095191;28;20212;-81
2023/07/23 10:59:24;;;;;;;7.77;0.20;;;21.20;99.90;;;;;;5095242;28;20414;-91
2023/07/23 11:01:51;;;;;;;1.37;0.20;;;21.50;99.90;;;;;;5093869;28;20471;-90
2023/07/23 11:04:24;;;;;;;2.67;0.20;;;21.70;99.90;;;;;;5095112;28;20979;-90
2023/07/23 11:07:00;;;;;;;0.50;0.20;;;21.90;99.90;;;;;;5094842;28;20446;-89
2023/07/23 11:09:32;;;;;;;0.40;0.20;;;22.00;62.60;;;;;;5094670;28;20407;-90
2023/07/23 11:11:59;;;;;;;2.30;0.20;;;22.00;99.90;;;;;;5094589;28;20471;-89
2023/07/23 11:14:26;;;;;;;6.60;0.20;;;22.10;99.90;;;;;;5094729;28;20408;-88
2023/07/23 11:16:55;;;;;;;22.70;0.50;;;22.20;1.00;;;;;;5094551;28;20411;-89
2023/07/23 11:19:24;;;;;;;3.87;0.20;;;22.10;1.00;;;;;;5094599;28;20404;-90
2023/07/23 11:21:57;;;;;;;1347.87;667.90;;;22.00;1.00;;;;;;5094221;28;20466;-79
2023/07/23 11:24:24;;;;;;;18.93;14.90;;;21.90;8.30;;;;;;5093021;28;20458;-80
2023/07/23 11:26:50;;;;;;;1.37;0.20;;;21.70;1.00;;;;;;5094351;28;20552;-88
2023/07/23 11:29:16;;;;;;;5.63;0.20;;;21.50;1.00;;;;;;5093389;28;20505;-87
2023/07/23 11:31:42;;;;;;;0.20;0.20;;;21.30;1.00;;;;;;5094549;28;20251;-89
2023/07/23 11:34:08;;;;;;;0.40;0.20;;;21.10;47.30;;;;;;5094493;28;20413;-79
2023/07/23 11:36:35;;;;;;;0.40;0.20;;;20.90;54.00;;;;;;5094342;28;20468;-92
2023/07/23 11:39:01;;;;;;;0.20;0.20;;;20.70;99.90;;;;;;5094098;28;20504;-78
2023/07/23 11:41:30;;;;;;;1.30;0.20;;;20.70;99.90;;;;;;5094360;28;20469;-90
2023/07/23 11:43:56;;;;;;;1.50;0.20;;;20.70;99.90;;;;;;5094031;28;20833;-90
2023/07/23 11:46:22;;;;;;;1.00;0.20;;;20.70;99.90;;;;;;5094346;28;20827;-80
2023/07/23 11:48:50;;;;;;;56.17;52.03;;;20.70;99.90;;;;;;5094067;28;20429;-78
2023/07/23 11:51:16;;;;;;;290.97;42.70;;;20.70;99.90;;;;;;5094278;28;20264;-91
2023/07/23 11:53:41;;;;;;;1.40;0.43;;;20.80;99.90;;;;;;5093611;28;20446;-80
2023/07/23 11:56:09;;;;;;;3.30;1.57;;;20.90;99.90;;;;;;5092833;28;20179;-79
2023/07/23 11:58:36;;;;;;;6.10;2.27;;;20.80;99.90;;;;;;5094054;28;20184;-83
2023/07/23 12:01:03;;;;;;;3.73;1.10;;;20.90;99.90;;;;;;5093705;28;20466;-79
2023/07/23 12:03:33;;;;;;;2.17;1.27;;;20.90;99.90;;;;;;5093787;28;20513;-82
2023/07/23 12:05:59;;;;;;;8.40;6.20;;;20.80;99.90;;;;;;5093797;28;20406;-80
2023/07/23 12:08:28;;;;;;;5.83;5.23;;;20.80;99.90;;;;;;5093338;28;20494;-89
2023/07/23 12:10:54;;;;;;;9.37;6.40;;;20.70;99.90;;;;;;5093554;28;20437;-78
2023/07/23 12:13:24;;;;;;;7.13;5.90;;;20.60;99.90;;;;;;5093510;28;20918;-88
2023/07/23 12:15:50;;;;;;;6.70;5.10;;;20.60;99.90;;;;;;5093465;28;20224;-79
2023/07/23 12:18:15;;;;;;;5.50;4.70;;;20.60;99.90;;;;;;5093659;28;20445;-77
2023/07/23 12:20:41;;;;;;;7.30;4.63;;;20.50;99.90;;;;;;5093306;28;20271;-78
2023/07/23 12:23:06;;;;;;;6.30;3.80;;;20.30;99.90;;;;;;5093022;28;20659;-79
2023/07/23 12:25:32;;;;;;;7.40;5.07;;;20.10;99.90;;;;;;5093430;28;20183;-90
2023/07/23 12:27:57;;;;;;;5.53;4.60;;;20.00;99.90;;;;;;5093368;28;20187;-78
2023/07/23 12:30:23;;;;;;;6.53;4.97;;;19.90;99.90;;;;;;5093215;28;20171;-80
2023/07/23 12:32:48;;;;;;;7.03;4.73;;;19.90;99.90;;;;;;5092094;28;20270;-89
2023/07/23 12:35:17;;;;;;;7.20;4.60;;;19.80;99.90;;;;;;5091963;28;20663;-78